createdAt,value
2022-12-18T00:00:13.869Z,69.80
2022-12-18T00:03:37.792Z,69.90
2022-12-18T00:06:40.968Z,69.91
2022-12-18T00:09:44.346Z,69.78
2022-12-18T00:12:46.951Z,68.38
2022-12-18T00:15:49.703Z,68.42
2022-12-18T00:18:54.984Z,69.06
2022-12-18T00:21:59.214Z,69.05
2022-12-18T00:25:01.943Z,69.58
2022-12-18T00:28:05.282Z,69.15
2022-12-18T00:31:11.070Z,68.92
2022-12-18T00:34:14.539Z,69.44
2022-12-18T00:37:20.282Z,69.85
2022-12-18T00:40:26.973Z,69.77
2022-12-18T00:43:29.846Z,69.67
2022-12-18T00:46:33.177Z,69.37
2022-12-18T00:49:35.936Z,68.96
2022-12-18T00:52:38.786Z,69.07
2022-12-18T00:55:42.324Z,68.60
2022-12-18T00:58:45.289Z,67.81
2022-12-18T01:01:48.875Z,67.36
2022-12-18T01:04:51.781Z,67.94
2022-12-18T01:07:56.686Z,67.72
2022-12-18T01:10:59.422Z,68.21
2022-12-18T01:14:02.205Z,68.65
2022-12-18T01:17:05.609Z,68.89
2022-12-18T01:20:10.350Z,68.64
2022-12-18T01:23:13.071Z,67.91
2022-12-18T01:26:17.053Z,68.57
2022-12-18T01:29:20.003Z,69.07
2022-12-18T01:32:23.032Z,68.41
2022-12-18T01:35:26.258Z,68.81
2022-12-18T01:38:29.626Z,67.69
2022-12-18T01:41:51.922Z,68.55
2022-12-18T01:45:02.690Z,67.29
2022-12-18T01:48:09.907Z,68.60
2022-12-18T01:51:13.762Z,69.20
2022-12-18T01:54:17.067Z,69.45
2022-12-18T01:57:20.493Z,69.67
2022-12-18T02:00:24.724Z,69.88
2022-12-18T02:03:27.583Z,69.56
2022-12-18T02:06:42.229Z,69.66
2022-12-18T02:09:56.434Z,69.41
2022-12-18T02:13:17.252Z,69.59
2022-12-18T02:16:37.738Z,69.73
2022-12-18T02:19:59.042Z,69.04
2022-12-18T02:23:26.650Z,69.30
2022-12-18T02:26:38.847Z,69.93
2022-12-18T02:29:58.925Z,70.50
2022-12-18T02:33:07.391Z,69.74
2022-12-18T02:36:11.988Z,69.61
2022-12-18T02:39:16.971Z,68.72
2022-12-18T02:42:20.927Z,69.71
2022-12-18T02:45:24.342Z,69.59
2022-12-18T02:48:34.994Z,69.93
2022-12-18T02:51:51.599Z,70.09
2022-12-18T02:55:11.590Z,70.30
2022-12-18T02:58:19.786Z,69.99
2022-12-18T03:01:41.079Z,70.30
2022-12-18T03:04:48.626Z,70.36
2022-12-18T03:08:09.410Z,70.59
2022-12-18T03:11:14.954Z,70.28
2022-12-18T03:14:21.614Z,70.45
2022-12-18T03:17:28.797Z,70.67
2022-12-18T03:20:35.227Z,70.74
2022-12-18T03:23:44.047Z,70.77
2022-12-18T03:26:50.401Z,70.19
2022-12-18T03:30:08.428Z,70.83
2022-12-18T03:33:54.021Z,70.08
2022-12-18T03:36:58.769Z,69.98
2022-12-18T03:40:01.294Z,70.62
2022-12-18T03:43:19.417Z,71.06
2022-12-18T03:46:31.818Z,71.07
2022-12-18T03:49:34.785Z,71.07
2022-12-18T03:52:47.049Z,71.30
2022-12-18T03:55:53.161Z,71.28
2022-12-18T03:58:57.710Z,71.06
2022-12-18T04:02:04.458Z,71.33
2022-12-18T04:05:10.047Z,71.31
2022-12-18T04:08:14.247Z,71.40
2022-12-18T04:11:18.046Z,71.39
2022-12-18T04:14:21.175Z,71.79
2022-12-18T04:17:24.830Z,72.06
2022-12-18T04:20:27.961Z,71.75
2022-12-18T04:23:30.802Z,71.49
2022-12-18T04:26:33.806Z,71.02
2022-12-18T04:29:37.022Z,71.14
2022-12-18T04:32:39.848Z,70.56
2022-12-18T04:35:44.338Z,70.68
2022-12-18T04:38:47.144Z,71.04
2022-12-18T04:41:50.836Z,71.01
2022-12-18T04:44:53.977Z,71.13
2022-12-18T04:48:01.799Z,70.87
2022-12-18T04:51:06.100Z,70.81
2022-12-18T04:54:08.801Z,71.32
2022-12-18T04:57:11.559Z,71.42
2022-12-18T05:00:14.717Z,71.11
2022-12-18T05:03:17.512Z,70.20
2022-12-18T05:06:20.339Z,71.01
2022-12-18T05:09:24.320Z,71.18
2022-12-18T05:12:27.134Z,71.52
2022-12-18T05:15:33.590Z,71.34
2022-12-18T05:18:36.547Z,71.63
2022-12-18T05:21:39.262Z,71.79
2022-12-18T05:24:42.127Z,71.00
2022-12-18T05:27:45.897Z,71.60
2022-12-18T05:30:50.709Z,71.96
2022-12-18T05:33:53.437Z,71.99
2022-12-18T05:36:56.151Z,70.93
2022-12-18T05:39:58.958Z,71.15
2022-12-18T05:43:01.703Z,70.58
2022-12-18T05:46:09.370Z,70.74
2022-12-18T05:49:12.148Z,70.33
2022-12-18T05:52:14.970Z,71.13
2022-12-18T05:55:17.874Z,70.81
2022-12-18T05:58:20.594Z,70.17
2022-12-18T06:01:27.425Z,70.23
2022-12-18T06:04:30.604Z,70.28
2022-12-18T06:07:33.271Z,71.37
2022-12-18T06:10:36.318Z,71.35
2022-12-18T06:13:40.016Z,71.68
2022-12-18T06:16:43.283Z,71.43
2022-12-18T06:19:45.735Z,71.10
2022-12-18T06:22:48.786Z,71.02
2022-12-18T06:25:52.554Z,70.51
2022-12-18T06:28:55.709Z,70.75
2022-12-18T06:31:58.146Z,70.74
2022-12-18T06:35:01.591Z,70.49
2022-12-18T06:38:04.164Z,70.46
2022-12-18T06:41:11.626Z,71.32
2022-12-18T06:44:14.085Z,72.71
2022-12-18T06:47:17.116Z,70.82
2022-12-18T06:50:19.534Z,70.61
2022-12-18T06:53:22.718Z,70.09
2022-12-18T06:56:25.158Z,70.66
2022-12-18T06:59:28.164Z,70.75
2022-12-18T07:02:31.448Z,70.21
2022-12-18T07:05:35.021Z,69.85
2022-12-18T07:08:37.515Z,70.03
2022-12-18T07:11:40.517Z,69.63
2022-12-18T07:14:43.005Z,69.90
2022-12-18T07:17:46.003Z,69.85
2022-12-18T07:20:48.434Z,69.69
2022-12-18T07:23:52.243Z,68.97
2022-12-18T07:26:54.745Z,68.98
2022-12-18T07:29:58.243Z,68.53
2022-12-18T07:33:00.745Z,68.52
2022-12-18T07:36:06.231Z,69.06
2022-12-18T07:39:08.967Z,69.29
2022-12-18T07:42:30.159Z,69.21
2022-12-18T07:45:32.680Z,68.36
2022-12-18T07:48:35.827Z,67.76
2022-12-18T07:51:38.304Z,67.39
2022-12-18T07:54:41.481Z,67.48
2022-12-18T07:57:54.158Z,67.17
2022-12-18T08:01:06.456Z,66.31
2022-12-18T08:04:09.310Z,66.96
2022-12-18T08:07:12.051Z,65.63
2022-12-18T08:10:15.157Z,64.99
2022-12-18T08:13:17.902Z,63.73
2022-12-18T08:16:22.072Z,63.49
2022-12-18T08:19:24.982Z,63.35
2022-12-18T08:22:27.738Z,61.57
2022-12-18T08:25:30.661Z,60.17
2022-12-18T08:28:34.162Z,59.22
2022-12-18T08:31:36.875Z,58.04
2022-12-18T08:34:39.563Z,57.64
2022-12-18T08:37:42.339Z,56.56
2022-12-18T08:40:45.393Z,55.13
2022-12-18T08:44:06.740Z,53.81
2022-12-18T08:47:09.638Z,50.19
2022-12-18T08:50:13.288Z,49.47
2022-12-18T08:53:16.038Z,47.72
2022-12-18T08:56:21.643Z,47.16
2022-12-18T08:59:24.671Z,46.25
2022-12-18T09:02:27.725Z,44.98
2022-12-18T09:05:31.274Z,43.61
2022-12-18T09:08:38.110Z,41.64
2022-12-18T09:11:41.160Z,38.22
2022-12-18T09:14:44.002Z,35.95
2022-12-18T09:17:46.854Z,36.08
2022-12-18T09:20:51.323Z,36.47
2022-12-18T09:23:56.145Z,34.88
2022-12-18T09:26:58.993Z,31.52
2022-12-18T09:30:02.376Z,30.66
2022-12-18T09:33:05.192Z,31.14
2022-12-18T09:36:12.372Z,30.16
2022-12-18T09:39:15.274Z,28.12
2022-12-18T09:42:23.140Z,28.44
2022-12-18T09:45:26.466Z,29.68
2022-12-18T09:48:33.663Z,29.74
2022-12-18T09:51:43.756Z,28.39
2022-12-18T09:54:57.483Z,27.26
2022-12-18T09:58:24.042Z,27.85
2022-12-18T10:01:38.980Z,28.81
2022-12-18T10:04:58.127Z,27.79
2022-12-18T10:08:00.466Z,27.17
2022-12-18T10:11:31.714Z,24.77
2022-12-18T10:14:51.823Z,25.11
2022-12-18T10:18:23.665Z,24.47
2022-12-18T10:21:40.438Z,23.49
2022-12-18T10:24:48.775Z,23.53
2022-12-18T10:27:58.786Z,23.00
2022-12-18T10:31:02.146Z,23.53
2022-12-18T10:34:04.539Z,24.52
2022-12-18T10:37:16.567Z,25.57
2022-12-18T10:40:22.558Z,25.40
2022-12-18T10:43:32.770Z,24.68
2022-12-18T10:46:35.809Z,24.31
2022-12-18T10:49:53.503Z,23.27
2022-12-18T10:52:59.190Z,21.59
2022-12-18T10:56:05.180Z,20.55
2022-12-18T10:59:10.573Z,19.84
2022-12-18T11:02:28.949Z,19.11
2022-12-18T11:05:37.821Z,19.16
2022-12-18T11:08:43.910Z,19.33
2022-12-18T11:11:55.755Z,19.42
2022-12-18T11:15:01.024Z,20.46
2022-12-18T11:18:03.610Z,21.05
2022-12-18T11:21:12.033Z,21.51
2022-12-18T11:24:35.740Z,21.89
2022-12-18T11:27:40.844Z,22.26
2022-12-18T11:30:43.294Z,23.56
2022-12-18T11:34:27.020Z,24.44
2022-12-18T11:37:20.329Z,24.85
2022-12-18T11:40:37.854Z,26.08
2022-12-18T11:43:56.828Z,27.20
2022-12-18T11:47:37.628Z,27.17
2022-12-18T11:50:54.903Z,27.14
2022-12-18T11:53:58.377Z,25.06
2022-12-18T11:57:19.677Z,23.80
2022-12-18T12:00:24.326Z,22.05
2022-12-18T12:03:51.617Z,21.13
2022-12-18T12:07:22.419Z,21.10
2022-12-18T12:11:05.051Z,20.58
2022-12-18T12:14:17.574Z,20.27
2022-12-18T12:17:39.024Z,20.66
2022-12-18T12:20:57.715Z,20.27
2022-12-18T12:24:10.899Z,20.42
2022-12-18T12:27:16.763Z,20.49
2022-12-18T12:30:27.206Z,20.73
2022-12-18T12:33:47.071Z,20.72
2022-12-18T12:37:00.988Z,21.59
2022-12-18T12:40:26.815Z,21.90
2022-12-18T12:47:26.484Z,23.33
2022-12-18T12:50:34.731Z,25.72
2022-12-18T12:53:40.170Z,28.27
2022-12-18T12:56:59.048Z,30.81
2022-12-18T13:00:14.025Z,33.36
2022-12-18T13:03:30.435Z,34.39
2022-12-18T13:06:58.226Z,35.53
2022-12-18T13:10:23.811Z,36.64
2022-12-18T13:13:50.754Z,37.69
2022-12-18T13:17:22.806Z,38.62
2022-12-18T13:20:35.587Z,40.06
2022-12-18T13:23:39.132Z,40.90
2022-12-18T13:26:42.523Z,41.79
2022-12-18T13:29:47.513Z,42.34
2022-12-18T13:33:16.304Z,43.32
2022-12-18T13:36:36.152Z,43.99
2022-12-18T13:39:39.152Z,42.71
2022-12-18T13:43:02.607Z,43.99
2022-12-18T13:46:23.744Z,45.01
2022-12-18T13:49:44.832Z,45.85
2022-12-18T13:52:47.665Z,47.49
2022-12-18T13:55:51.590Z,47.63
2022-12-18T13:59:13.392Z,47.84
2022-12-18T14:02:22.134Z,48.85
2022-12-18T14:05:36.646Z,48.53
2022-12-18T14:08:44.546Z,50.40
2022-12-18T14:11:50.572Z,50.01
2022-12-18T14:14:55.318Z,51.74
2022-12-18T14:18:17.246Z,52.45
2022-12-18T14:21:30.680Z,54.13
2022-12-18T14:24:33.881Z,54.39
2022-12-18T14:27:39.291Z,54.43
2022-12-18T14:30:44.816Z,55.27
2022-12-18T14:33:48.133Z,54.94
2022-12-18T14:36:56.307Z,54.64
2022-12-18T14:40:07.301Z,55.42
2022-12-18T14:43:14.237Z,55.08
2022-12-18T14:46:28.482Z,54.77
2022-12-18T14:49:35.420Z,54.20
2022-12-18T14:52:39.676Z,54.23
2022-12-18T14:55:45.974Z,52.98
2022-12-18T14:59:00.381Z,52.58
2022-12-18T15:02:09.482Z,52.08
2022-12-18T15:05:14.138Z,53.71
2022-12-18T15:08:46.390Z,54.54
2022-12-18T15:11:49.040Z,54.67
2022-12-18T15:14:52.274Z,55.41
2022-12-18T15:18:00.323Z,56.13
2022-12-18T15:21:11.266Z,56.56
2022-12-18T15:24:26.148Z,57.36
2022-12-18T15:27:34.411Z,57.52
2022-12-18T15:30:37.082Z,57.80
2022-12-18T15:33:47.187Z,57.13
2022-12-18T15:36:51.587Z,57.14
2022-12-18T15:39:54.633Z,57.91
2022-12-18T15:43:16.404Z,57.03
2022-12-18T15:46:24.559Z,57.27
2022-12-18T15:49:27.100Z,57.32
2022-12-18T15:52:30.210Z,56.68
2022-12-18T15:55:51.152Z,56.63
2022-12-18T15:58:54.850Z,57.24
2022-12-18T16:01:57.714Z,57.22
2022-12-18T16:05:00.882Z,58.12
2022-12-18T16:08:03.484Z,59.22
2022-12-18T16:11:06.929Z,57.78
2022-12-18T16:14:19.736Z,59.01
2022-12-18T16:17:23.003Z,59.50
2022-12-18T16:20:25.500Z,60.07
2022-12-18T16:23:29.063Z,59.68
2022-12-18T16:26:33.140Z,60.08
2022-12-18T16:29:36.189Z,60.48
2022-12-18T16:32:38.648Z,60.73
2022-12-18T16:35:41.810Z,60.83
2022-12-18T16:38:45.402Z,60.94
2022-12-18T16:41:48.835Z,61.21
2022-12-18T16:44:51.375Z,61.25
2022-12-18T16:47:56.747Z,60.59
2022-12-18T16:51:04.727Z,61.07
2022-12-18T16:54:11.730Z,61.66
2022-12-18T16:57:19.537Z,61.75
2022-12-18T17:00:24.150Z,62.01
2022-12-18T17:03:28.125Z,62.14
2022-12-18T17:06:33.823Z,62.47
2022-12-18T17:09:38.257Z,62.58
2022-12-18T17:12:41.455Z,63.09
2022-12-18T17:15:44.038Z,63.31
2022-12-18T17:18:47.202Z,63.44
2022-12-18T17:21:51.221Z,63.89
2022-12-18T17:24:54.284Z,64.13
2022-12-18T17:27:56.776Z,64.44
2022-12-18T17:30:59.907Z,64.66
2022-12-18T17:34:03.582Z,64.90
2022-12-18T17:37:06.773Z,65.21
2022-12-18T17:40:09.972Z,65.35
2022-12-18T17:43:13.198Z,65.49
2022-12-18T17:46:15.694Z,65.81
2022-12-18T17:49:19.032Z,65.97
2022-12-18T17:52:21.571Z,66.20
2022-12-18T17:55:25.389Z,66.21
2022-12-18T17:58:29.239Z,66.23
2022-12-18T18:01:32.805Z,66.43
2022-12-18T18:04:35.644Z,66.45
2022-12-18T18:07:39.667Z,66.61
2022-12-18T18:10:42.503Z,66.45
2022-12-18T18:14:04.499Z,66.67
2022-12-18T18:17:07.347Z,66.95
2022-12-18T18:20:10.755Z,67.33
2022-12-18T18:23:13.545Z,67.44
2022-12-18T18:26:16.345Z,67.51
2022-12-18T18:29:23.594Z,67.52
2022-12-18T18:32:28.666Z,67.69
2022-12-18T18:35:53.440Z,67.71
2022-12-18T18:38:54.709Z,67.72
2022-12-18T18:41:57.589Z,67.76
2022-12-18T18:45:00.353Z,67.77
2022-12-18T18:48:03.174Z,67.46
2022-12-18T18:51:21.086Z,67.44
2022-12-18T18:54:25.684Z,67.63
2022-12-18T18:57:30.465Z,67.80
2022-12-18T19:00:33.583Z,67.92
2022-12-18T19:03:37.874Z,67.91
2022-12-18T19:06:42.793Z,67.97
2022-12-18T19:09:51.876Z,67.97
2022-12-18T19:13:13.300Z,68.12
2022-12-18T19:16:16.099Z,68.13
2022-12-18T19:19:21.215Z,68.28
2022-12-18T19:22:24.472Z,68.26
2022-12-18T19:25:38.325Z,68.43
2022-12-18T19:28:44.665Z,67.72
2022-12-18T19:31:47.873Z,67.91
2022-12-18T19:34:50.753Z,68.00
2022-12-18T19:37:53.593Z,67.83
2022-12-18T19:40:56.492Z,67.62
2022-12-18T19:43:59.307Z,67.55
2022-12-18T19:47:02.093Z,67.81
2022-12-18T19:50:05.256Z,67.82
2022-12-18T19:53:08.720Z,68.05
2022-12-18T19:56:15.741Z,68.33
2022-12-18T19:59:18.603Z,68.51
2022-12-18T20:02:21.712Z,68.80
2022-12-18T20:05:26.353Z,68.94
2022-12-18T20:08:29.639Z,69.05
2022-12-18T20:11:36.364Z,68.87
2022-12-18T20:14:44.730Z,69.25
2022-12-18T20:17:48.053Z,68.99
2022-12-18T20:20:50.769Z,69.24
2022-12-18T20:23:55.945Z,69.52
2022-12-18T20:26:58.508Z,69.32
2022-12-18T20:30:01.551Z,69.24
2022-12-18T20:33:04.078Z,69.70
2022-12-18T20:36:09.108Z,69.24
2022-12-18T20:39:12.462Z,68.82
2022-12-18T20:42:17.373Z,68.77
2022-12-18T20:45:19.849Z,68.95
2022-12-18T20:48:26.606Z,69.40
2022-12-18T20:51:30.632Z,69.35
2022-12-18T20:54:33.730Z,69.54
2022-12-18T20:57:38.379Z,69.40
2022-12-18T21:00:41.478Z,69.66
2022-12-18T21:03:46.155Z,69.70
2022-12-18T21:06:54.250Z,69.44
2022-12-18T21:10:05.463Z,69.89
2022-12-18T21:13:08.808Z,69.82
2022-12-18T21:16:13.928Z,70.22
2022-12-18T21:19:23.174Z,70.19
2022-12-18T21:22:27.076Z,69.95
2022-12-18T21:25:30.554Z,70.39
2022-12-18T21:28:33.019Z,70.49
2022-12-18T21:31:39.674Z,70.68
2022-12-18T21:34:47.489Z,70.55
2022-12-18T21:37:51.172Z,69.87
2022-12-18T21:40:53.620Z,69.32
2022-12-18T21:44:06.359Z,69.71
2022-12-18T21:47:21.982Z,70.16
2022-12-18T21:50:25.613Z,70.30
2022-12-18T21:53:28.290Z,69.59
2022-12-18T21:56:56.756Z,69.77
2022-12-18T21:59:59.455Z,70.26
2022-12-18T22:03:18.146Z,70.61
2022-12-18T22:06:22.482Z,70.84
2022-12-18T22:09:26.369Z,70.89
2022-12-18T22:12:35.467Z,71.01
2022-12-18T22:15:38.696Z,70.71
2022-12-18T22:18:41.542Z,70.61
2022-12-18T22:21:46.887Z,71.09
2022-12-18T22:24:49.611Z,71.25
2022-12-18T22:28:11.276Z,71.57
2022-12-18T22:31:14.031Z,71.60
2022-12-18T22:34:22.011Z,71.80
2022-12-18T22:37:26.006Z,71.56
2022-12-18T22:40:29.385Z,71.52
2022-12-18T22:43:33.417Z,71.56
2022-12-18T22:46:39.122Z,71.44
2022-12-18T22:49:41.938Z,71.46
2022-12-18T22:52:44.651Z,71.23
2022-12-18T22:55:47.427Z,71.23
2022-12-18T22:58:51.486Z,71.42
2022-12-18T23:01:58.613Z,71.81
2022-12-18T23:05:02.175Z,72.30
2022-12-18T23:08:05.139Z,71.96
2022-12-18T23:11:08.862Z,72.12
2022-12-18T23:14:12.750Z,72.37
2022-12-18T23:17:15.473Z,71.87
2022-12-18T23:20:18.223Z,72.09
2022-12-18T23:23:20.942Z,72.28
2022-12-18T23:26:25.425Z,72.13
2022-12-18T23:29:28.287Z,72.38
2022-12-18T23:32:31.095Z,72.50
2022-12-18T23:35:36.139Z,72.16
2022-12-18T23:38:39.867Z,72.36
2022-12-18T23:41:42.636Z,72.42
2022-12-18T23:44:45.417Z,72.41
2022-12-18T23:47:50.882Z,72.04
2022-12-18T23:50:54.110Z,72.41
2022-12-18T23:53:58.764Z,72.40
2022-12-18T23:57:01.856Z,72.44
